createdAt,value
2022-10-19T00:00:21.371Z,0.00
2022-10-19T00:01:21.410Z,0.00
2022-10-19T00:02:21.689Z,0.00
2022-10-19T00:03:23.240Z,0.00
2022-10-19T00:04:21.891Z,0.00
2022-10-19T00:05:22.032Z,0.00
2022-10-19T00:06:22.190Z,0.00
2022-10-19T00:07:22.338Z,0.00
2022-10-19T00:08:22.544Z,0.00
2022-10-19T00:09:22.660Z,0.00
2022-10-19T00:10:22.749Z,0.00
2022-10-19T00:11:22.911Z,0.00
2022-10-19T00:12:23.080Z,0.00
2022-10-19T00:13:23.242Z,0.00
2022-10-19T00:14:23.420Z,0.00
2022-10-19T00:15:23.520Z,0.00
2022-10-19T00:16:23.675Z,0.00
2022-10-19T00:17:23.823Z,0.00
2022-10-19T00:18:24.012Z,0.00
2022-10-19T00:19:24.140Z,0.00
2022-10-19T00:20:24.275Z,0.00
2022-10-19T00:21:24.465Z,0.00
2022-10-19T00:22:24.564Z,0.00
2022-10-19T00:23:24.717Z,0.00
2022-10-19T00:24:24.904Z,0.00
2022-10-19T00:25:25.071Z,0.00
2022-10-19T00:26:25.195Z,0.00
2022-10-19T00:27:25.293Z,0.00
2022-10-19T00:28:25.472Z,0.00
2022-10-19T00:29:25.548Z,0.00
2022-10-19T00:30:25.674Z,0.00
2022-10-19T00:31:25.798Z,0.00
2022-10-19T00:32:25.956Z,0.00
2022-10-19T00:33:26.112Z,0.00
2022-10-19T00:34:26.350Z,0.00
2022-10-19T00:35:26.447Z,0.00
2022-10-19T00:36:26.628Z,0.00
2022-10-19T00:37:26.851Z,0.00
2022-10-19T00:38:26.959Z,0.00
2022-10-19T00:39:27.142Z,0.00
2022-10-19T00:40:27.249Z,0.00
2022-10-19T00:41:27.345Z,0.00
2022-10-19T00:42:27.507Z,0.00
2022-10-19T00:43:27.671Z,0.00
2022-10-19T00:44:27.825Z,0.00
2022-10-19T00:45:27.932Z,0.00
2022-10-19T00:46:28.049Z,0.00
2022-10-19T00:47:28.208Z,0.00
2022-10-19T00:48:28.391Z,0.00
2022-10-19T00:49:28.584Z,0.00
2022-10-19T00:50:28.726Z,0.00
2022-10-19T00:51:28.922Z,0.00
2022-10-19T00:52:29.092Z,0.00
2022-10-19T00:53:29.275Z,0.00
2022-10-19T00:54:29.353Z,0.00
2022-10-19T00:55:29.442Z,0.00
2022-10-19T00:56:29.732Z,0.00
2022-10-19T00:57:29.740Z,0.00
2022-10-19T00:58:29.891Z,0.00
2022-10-19T00:59:30.054Z,0.00
2022-10-19T01:00:30.196Z,0.00
2022-10-19T01:01:30.388Z,0.00
2022-10-19T01:02:30.770Z,0.00
2022-10-19T01:03:30.607Z,0.00
2022-10-19T01:04:30.792Z,0.00
2022-10-19T01:05:30.940Z,0.00
2022-10-19T01:06:31.146Z,0.00
2022-10-19T01:07:31.451Z,0.00
2022-10-19T01:08:31.412Z,0.00
2022-10-19T01:09:31.569Z,0.00
2022-10-19T01:10:31.772Z,0.00
2022-10-19T01:11:31.835Z,0.00
2022-10-19T01:12:32.010Z,0.00
2022-10-19T01:13:32.205Z,0.00
2022-10-19T01:14:32.909Z,0.00
2022-10-19T01:15:32.442Z,0.00
2022-10-19T01:16:32.614Z,0.00
2022-10-19T01:17:32.960Z,0.00
2022-10-19T01:18:32.849Z,0.00
2022-10-19T01:19:32.941Z,0.00
2022-10-19T01:20:33.114Z,0.00
2022-10-19T01:21:33.298Z,0.00
2022-10-19T01:22:33.380Z,0.00
2022-10-19T01:23:33.544Z,0.00
2022-10-19T01:24:35.830Z,0.00
2022-10-19T01:25:33.831Z,0.00
2022-10-19T01:26:33.920Z,0.00
2022-10-19T01:27:34.398Z,0.00
2022-10-19T01:28:34.379Z,0.00
2022-10-19T01:29:34.310Z,0.00
2022-10-19T01:30:34.517Z,0.00
2022-10-19T01:31:34.633Z,0.00
2022-10-19T01:32:34.803Z,0.00
2022-10-19T01:33:34.964Z,0.00
2022-10-19T01:34:35.030Z,0.00
2022-10-19T01:35:35.193Z,0.00
2022-10-19T01:36:35.360Z,0.00
2022-10-19T01:37:35.792Z,0.00
2022-10-19T01:38:35.633Z,0.00
2022-10-19T01:39:35.730Z,0.00
2022-10-19T01:40:35.843Z,0.00
2022-10-19T01:41:35.984Z,0.00
2022-10-19T01:42:36.169Z,0.00
2022-10-19T01:43:36.326Z,0.00
2022-10-19T01:44:36.609Z,0.00
2022-10-19T01:45:36.646Z,0.00
2022-10-19T01:46:36.806Z,0.00
2022-10-19T01:47:37.125Z,0.00
2022-10-19T01:48:37.121Z,0.00
2022-10-19T01:49:37.302Z,0.00
2022-10-19T01:50:37.438Z,0.00
2022-10-19T01:51:37.554Z,0.00
2022-10-19T01:52:37.722Z,0.00
2022-10-19T01:53:37.897Z,0.00
2022-10-19T01:54:38.046Z,0.00
2022-10-19T01:55:38.187Z,0.00
2022-10-19T01:56:38.323Z,0.00
2022-10-19T01:57:38.502Z,0.00
2022-10-19T01:58:38.664Z,0.00
2022-10-19T01:59:38.824Z,0.00
2022-10-19T02:00:39.047Z,0.00
2022-10-19T02:01:39.094Z,0.00
2022-10-19T02:02:39.264Z,0.00
2022-10-19T02:03:39.412Z,0.00
2022-10-19T02:04:39.554Z,0.00
2022-10-19T02:05:39.634Z,0.00
2022-10-19T02:06:39.813Z,0.00
2022-10-19T02:07:39.984Z,0.00
2022-10-19T02:08:40.143Z,0.00
2022-10-19T02:09:40.330Z,0.00
2022-10-19T02:10:40.475Z,0.00
2022-10-19T02:11:42.481Z,0.00
2022-10-19T02:12:40.667Z,0.00
2022-10-19T02:13:40.811Z,0.00
2022-10-19T02:14:40.936Z,0.00
2022-10-19T02:15:41.141Z,0.00
2022-10-19T02:16:41.200Z,0.00
2022-10-19T02:17:41.288Z,0.00
2022-10-19T02:18:41.474Z,0.00
2022-10-19T02:19:41.665Z,0.00
2022-10-19T02:20:41.815Z,0.00
2022-10-19T02:21:41.952Z,0.00
2022-10-19T02:22:42.082Z,0.00
2022-10-19T02:23:42.217Z,0.00
2022-10-19T02:24:42.402Z,0.00
2022-10-19T02:25:42.614Z,0.00
2022-10-19T02:26:42.701Z,0.00
2022-10-19T02:27:42.809Z,0.00
2022-10-19T02:28:42.971Z,0.00
2022-10-19T02:29:43.108Z,0.00
2022-10-19T02:30:43.184Z,0.00
2022-10-19T02:31:43.349Z,0.00
2022-10-19T02:32:43.518Z,0.00
2022-10-19T02:33:43.666Z,0.00
2022-10-19T02:34:43.785Z,0.00
2022-10-19T02:35:43.938Z,0.00
2022-10-19T02:36:44.078Z,0.00
2022-10-19T02:37:44.164Z,0.00
2022-10-19T02:38:44.350Z,0.00
2022-10-19T02:39:44.439Z,0.00
2022-10-19T02:40:44.620Z,0.00
2022-10-19T02:41:44.792Z,0.00
2022-10-19T02:42:44.874Z,0.00
2022-10-19T02:43:45.086Z,0.00
2022-10-19T02:44:45.200Z,0.00
2022-10-19T02:45:45.427Z,0.00
2022-10-19T02:46:45.527Z,0.00
2022-10-19T02:47:45.666Z,0.00
2022-10-19T02:48:45.771Z,0.00
2022-10-19T02:49:45.923Z,0.00
2022-10-19T02:50:46.091Z,0.00
2022-10-19T02:51:46.187Z,0.00
2022-10-19T02:52:46.369Z,0.00
2022-10-19T02:53:46.508Z,0.00
2022-10-19T02:54:46.692Z,0.00
2022-10-19T02:55:46.772Z,0.00
2022-10-19T02:56:46.956Z,0.00
2022-10-19T02:57:47.119Z,0.00
2022-10-19T02:58:47.297Z,0.00
2022-10-19T02:59:47.400Z,0.00
2022-10-19T03:00:47.584Z,0.00
2022-10-19T03:01:47.668Z,0.00
2022-10-19T03:02:47.862Z,0.00
2022-10-19T03:03:47.985Z,0.00
2022-10-19T03:05:48.304Z,0.00
2022-10-19T03:06:48.478Z,0.00
2022-10-19T03:07:48.618Z,0.00
2022-10-19T03:08:48.800Z,0.00
2022-10-19T03:09:48.970Z,0.00
2022-10-19T03:10:49.158Z,0.00
2022-10-19T03:11:49.294Z,0.00
2022-10-19T03:12:49.446Z,0.00
2022-10-19T03:13:49.598Z,0.00
2022-10-19T03:14:49.774Z,0.00
2022-10-19T03:15:49.915Z,0.00
2022-10-19T03:16:50.096Z,0.00
2022-10-19T03:17:50.262Z,0.00
2022-10-19T03:18:50.440Z,0.00
2022-10-19T03:19:50.575Z,0.00
2022-10-19T03:20:50.681Z,0.00
2022-10-19T03:21:50.804Z,0.00
2022-10-19T03:22:50.983Z,0.00
2022-10-19T03:23:51.095Z,0.00
2022-10-19T03:24:51.229Z,0.00
2022-10-19T03:25:51.418Z,0.00
2022-10-19T03:26:51.513Z,0.00
2022-10-19T03:27:51.675Z,0.00
2022-10-19T03:28:51.852Z,0.00
2022-10-19T03:29:51.952Z,0.00
2022-10-19T03:30:52.050Z,0.00
2022-10-19T03:31:52.799Z,0.00
2022-10-19T03:32:52.403Z,0.00
2022-10-19T03:33:52.504Z,0.00
2022-10-19T03:34:52.651Z,0.00
2022-10-19T03:35:52.830Z,0.00
2022-10-19T03:36:53.000Z,0.00
2022-10-19T03:37:53.752Z,0.00
2022-10-19T03:38:53.232Z,0.00
2022-10-19T03:39:53.320Z,0.00
2022-10-19T03:40:53.497Z,0.00
2022-10-19T03:41:53.665Z,0.00
2022-10-19T03:42:53.883Z,0.00
2022-10-19T03:43:53.988Z,0.00
2022-10-19T03:44:54.129Z,0.00
2022-10-19T03:45:54.217Z,0.00
2022-10-19T03:46:54.384Z,0.00
2022-10-19T03:47:54.556Z,0.00
2022-10-19T03:48:54.662Z,0.00
2022-10-19T03:49:54.861Z,0.00
2022-10-19T03:50:54.980Z,0.00
2022-10-19T03:51:55.129Z,0.00
2022-10-19T03:52:55.410Z,0.00
2022-10-19T03:53:55.477Z,0.00
2022-10-19T03:54:55.637Z,0.00
2022-10-19T03:55:55.795Z,0.00
2022-10-19T03:56:55.966Z,0.00
2022-10-19T03:57:56.178Z,0.00
2022-10-19T03:58:56.225Z,0.00
2022-10-19T03:59:56.389Z,0.00
2022-10-19T04:00:56.561Z,0.00
2022-10-19T04:01:56.681Z,0.00
2022-10-19T04:02:56.805Z,0.00
2022-10-19T04:03:56.885Z,0.00
2022-10-19T04:04:57.047Z,0.00
2022-10-19T04:05:57.203Z,0.00
2022-10-19T04:06:57.358Z,0.00
2022-10-19T04:07:57.506Z,0.00
2022-10-19T04:08:57.639Z,0.00
2022-10-19T04:09:57.799Z,0.00
2022-10-19T04:10:57.985Z,0.00
2022-10-19T04:11:58.138Z,0.00
2022-10-19T04:12:58.235Z,0.00
2022-10-19T04:13:58.429Z,0.00
2022-10-19T04:14:58.459Z,0.00
2022-10-19T04:15:58.650Z,0.00
2022-10-19T04:16:58.746Z,0.00
2022-10-19T04:17:58.904Z,0.00
2022-10-19T04:18:59.012Z,0.00
2022-10-19T04:19:59.167Z,0.00
2022-10-19T04:20:59.357Z,0.00
2022-10-19T04:21:59.473Z,0.00
2022-10-19T04:22:59.605Z,0.00
2022-10-19T04:23:59.692Z,0.00
2022-10-19T04:24:59.833Z,0.00
2022-10-19T04:25:59.957Z,0.00
2022-10-19T04:27:00.051Z,0.00
2022-10-19T04:28:00.224Z,0.00
2022-10-19T04:29:00.456Z,0.00
2022-10-19T04:30:00.555Z,0.00
2022-10-19T04:31:00.678Z,0.00
2022-10-19T04:32:00.829Z,0.00
2022-10-19T04:33:00.963Z,0.00
2022-10-19T04:34:01.052Z,0.00
2022-10-19T04:35:01.230Z,0.00
2022-10-19T04:36:01.434Z,0.00
2022-10-19T04:37:01.572Z,0.00
2022-10-19T04:38:01.701Z,0.00
2022-10-19T04:39:01.822Z,0.00
2022-10-19T04:40:01.994Z,0.00
2022-10-19T04:41:02.100Z,0.00
2022-10-19T04:42:02.256Z,0.00
2022-10-19T04:43:02.451Z,0.00
2022-10-19T04:44:02.691Z,0.00
2022-10-19T04:45:02.741Z,0.00
2022-10-19T04:46:02.978Z,0.00
2022-10-19T04:47:03.012Z,0.00
2022-10-19T04:48:03.303Z,0.00
2022-10-19T04:49:03.329Z,0.00
2022-10-19T04:50:03.505Z,0.00
2022-10-19T04:51:03.599Z,0.00
2022-10-19T04:52:03.732Z,0.00
2022-10-19T04:53:03.846Z,0.00
2022-10-19T04:54:04.012Z,0.00
2022-10-19T04:55:04.172Z,0.00
2022-10-19T04:56:04.351Z,0.00
2022-10-19T04:57:04.427Z,0.00
2022-10-19T04:58:04.618Z,0.00
2022-10-19T04:59:04.735Z,0.00
2022-10-19T05:00:04.847Z,0.00
2022-10-19T05:01:04.987Z,0.00
2022-10-19T05:02:05.079Z,0.00
2022-10-19T05:03:05.163Z,0.00
2022-10-19T05:04:05.307Z,0.00
2022-10-19T05:05:05.419Z,0.00
2022-10-19T05:06:05.507Z,0.00
2022-10-19T05:07:05.701Z,0.00
2022-10-19T05:08:05.795Z,0.00
2022-10-19T05:09:05.918Z,0.00
2022-10-19T05:10:06.078Z,0.00
2022-10-19T05:11:06.236Z,0.00
2022-10-19T05:12:06.384Z,0.00
2022-10-19T05:13:06.546Z,0.00
2022-10-19T05:14:06.729Z,0.00
2022-10-19T05:15:06.885Z,0.00
2022-10-19T05:16:07.035Z,0.00
2022-10-19T05:17:07.178Z,0.00
2022-10-19T05:18:07.327Z,0.00
2022-10-19T05:19:07.481Z,0.00
2022-10-19T05:20:07.677Z,0.00
2022-10-19T05:21:07.755Z,0.00
2022-10-19T05:22:07.950Z,0.00
2022-10-19T05:23:08.086Z,0.00
2022-10-19T05:24:09.209Z,0.00
2022-10-19T05:25:08.458Z,0.00
2022-10-19T05:26:08.715Z,0.00
2022-10-19T05:27:08.713Z,0.00
2022-10-19T05:28:08.855Z,4.00
2022-10-19T05:29:09.053Z,4.00
2022-10-19T05:30:09.187Z,0.00
2022-10-19T05:31:09.263Z,4.00
2022-10-19T05:32:09.435Z,4.00
2022-10-19T05:33:09.584Z,4.00
2022-10-19T05:34:09.806Z,4.00
2022-10-19T05:35:10.499Z,4.00
2022-10-19T05:36:10.103Z,4.00
2022-10-19T05:37:10.171Z,4.00
2022-10-19T05:38:10.330Z,8.00
2022-10-19T05:39:10.484Z,8.00
2022-10-19T05:40:10.649Z,12.00
2022-10-19T05:41:10.750Z,12.00
2022-10-19T05:42:10.870Z,12.00
2022-10-19T05:43:11.037Z,16.00
2022-10-19T05:44:11.200Z,20.00
2022-10-19T05:45:11.303Z,24.00
2022-10-19T05:46:11.464Z,28.00
2022-10-19T05:47:11.621Z,32.00
2022-10-19T05:48:11.745Z,36.00
2022-10-19T05:49:11.919Z,40.00
2022-10-19T05:50:12.081Z,48.00
2022-10-19T05:51:12.241Z,56.00
2022-10-19T05:52:12.486Z,64.00
2022-10-19T05:53:12.589Z,76.00
2022-10-19T05:54:12.772Z,80.00
2022-10-19T05:55:12.830Z,96.00
2022-10-19T05:56:13.009Z,104.00
2022-10-19T05:57:13.108Z,116.00
2022-10-19T05:58:13.285Z,132.00
2022-10-19T05:59:13.394Z,144.00
2022-10-19T06:00:13.559Z,156.00
2022-10-19T06:01:13.719Z,172.00
2022-10-19T06:02:13.866Z,192.00
2022-10-19T06:03:13.919Z,208.00
2022-10-19T06:04:14.157Z,224.00
2022-10-19T06:05:14.137Z,240.00
2022-10-19T06:06:14.377Z,252.00
2022-10-19T06:07:14.558Z,268.00
2022-10-19T06:08:14.639Z,288.00
2022-10-19T06:09:14.758Z,300.00
2022-10-19T06:10:14.933Z,316.00
2022-10-19T06:11:15.115Z,336.00
2022-10-19T06:12:16.369Z,352.00
2022-10-19T06:13:15.430Z,372.00
2022-10-19T06:14:15.526Z,384.00
2022-10-19T06:15:15.636Z,396.00
2022-10-19T06:16:15.739Z,412.00
2022-10-19T06:17:15.902Z,432.00
2022-10-19T06:18:16.018Z,448.00
2022-10-19T06:19:16.232Z,456.00
2022-10-19T06:20:16.300Z,468.00
2022-10-19T06:21:16.446Z,464.00
2022-10-19T06:22:16.643Z,452.00
2022-10-19T06:23:16.737Z,464.00
2022-10-19T06:24:16.927Z,480.00
2022-10-19T06:25:20.189Z,488.00
2022-10-19T06:26:17.243Z,500.00
2022-10-19T06:27:17.297Z,512.00
2022-10-19T06:28:17.415Z,520.00
2022-10-19T06:29:17.544Z,532.00
2022-10-19T06:30:17.787Z,556.00
2022-10-19T06:31:17.933Z,596.00
2022-10-19T06:32:18.049Z,632.00
2022-10-19T06:33:18.137Z,652.00
2022-10-19T06:34:18.285Z,668.00
2022-10-19T06:35:18.391Z,672.00
2022-10-19T06:36:18.505Z,692.00
2022-10-19T06:37:18.608Z,724.00
2022-10-19T06:38:18.808Z,748.00
2022-10-19T06:39:18.917Z,784.00
2022-10-19T06:40:19.173Z,836.00
2022-10-19T06:41:19.218Z,896.00
2022-10-19T06:42:19.406Z,928.00
2022-10-19T06:43:19.493Z,976.00
2022-10-19T06:44:19.661Z,1044.00
2022-10-19T06:45:19.836Z,1064.00
2022-10-19T06:46:20.003Z,1072.00
2022-10-19T06:47:20.157Z,1136.00
2022-10-19T06:48:20.329Z,1236.00
2022-10-19T06:49:20.506Z,1336.00
2022-10-19T06:50:20.650Z,1404.00
2022-10-19T06:51:20.721Z,1492.00
2022-10-19T06:52:20.901Z,1568.00
2022-10-19T06:53:21.012Z,1664.00
2022-10-19T06:54:21.125Z,1780.00
2022-10-19T06:55:21.230Z,1912.00
2022-10-19T06:56:21.965Z,2036.00
2022-10-19T06:57:21.507Z,2084.00
2022-10-19T06:58:21.692Z,2176.00
2022-10-19T06:59:21.803Z,2260.00
2022-10-19T07:00:21.899Z,2320.00
2022-10-19T07:01:22.134Z,2324.00
2022-10-19T07:02:22.253Z,2348.00
2022-10-19T07:03:22.351Z,2404.00
2022-10-19T07:04:22.458Z,2472.00
2022-10-19T07:05:22.584Z,2552.00
2022-10-19T07:06:22.712Z,2620.00
2022-10-19T07:07:22.940Z,2604.00
2022-10-19T07:08:22.963Z,2604.00
2022-10-19T07:09:23.101Z,2700.00
2022-10-19T07:10:23.276Z,2788.00
2022-10-19T07:11:23.422Z,2852.00
2022-10-19T07:12:23.589Z,2928.00
2022-10-19T07:13:23.748Z,3028.00
2022-10-19T07:14:23.860Z,2988.00
2022-10-19T07:15:24.049Z,2948.00
2022-10-19T07:16:24.160Z,3004.00
2022-10-19T07:17:24.241Z,3076.00
2022-10-19T07:18:24.366Z,3140.00
2022-10-19T07:19:24.544Z,3260.00
2022-10-19T07:20:24.795Z,3344.00
2022-10-19T07:21:24.774Z,3492.00
2022-10-19T07:22:28.119Z,3520.00
2022-10-19T07:23:25.037Z,3552.00
2022-10-19T07:24:25.309Z,3564.00
2022-10-19T07:25:25.368Z,3696.00
2022-10-19T07:26:25.556Z,3812.00
2022-10-19T07:27:25.658Z,3780.00
2022-10-19T07:28:25.857Z,3960.00
2022-10-19T07:29:25.976Z,4124.00
2022-10-19T07:30:26.029Z,4240.00
2022-10-19T07:31:26.189Z,4080.00
2022-10-19T07:32:26.369Z,3980.00
2022-10-19T07:33:26.538Z,4000.00
2022-10-19T07:34:28.928Z,4080.00
2022-10-19T07:35:26.758Z,4276.00
2022-10-19T07:36:26.888Z,4324.00
2022-10-19T07:37:26.977Z,4404.00
2022-10-19T07:38:27.157Z,4528.00
2022-10-19T07:39:27.267Z,4620.00
2022-10-19T07:40:27.366Z,4744.00
2022-10-19T07:41:27.466Z,4788.00
2022-10-19T07:42:27.664Z,4796.00
2022-10-19T07:43:27.741Z,4816.00
2022-10-19T07:44:27.948Z,4760.00
2022-10-19T07:45:28.039Z,4660.00
2022-10-19T07:46:28.216Z,4720.00
2022-10-19T07:47:28.310Z,4968.00
2022-10-19T07:48:28.508Z,5068.00
2022-10-19T07:49:28.676Z,5152.00
2022-10-19T07:50:28.805Z,5248.00
2022-10-19T07:52:30.802Z,5544.00
2022-10-19T07:53:29.165Z,5580.00
2022-10-19T07:54:29.346Z,5688.00
2022-10-19T07:55:29.451Z,5652.00
2022-10-19T07:56:29.535Z,5728.00
2022-10-19T07:57:29.786Z,5848.00
2022-10-19T07:58:29.916Z,5840.00
2022-10-19T07:59:30.045Z,5708.00
2022-10-19T08:00:30.229Z,5804.00
2022-10-19T08:01:30.345Z,5936.00
2022-10-19T08:02:39.486Z,5912.00
2022-10-19T08:04:14.307Z,6052.00
2022-10-19T08:04:59.085Z,6312.00
2022-10-19T08:05:31.833Z,6364.00
2022-10-19T08:06:30.950Z,6248.00
2022-10-19T08:07:31.088Z,5928.00
2022-10-19T08:08:31.206Z,5428.00
2022-10-19T08:09:52.205Z,5716.00
2022-10-19T08:10:32.393Z,6080.00
2022-10-19T08:11:31.572Z,6472.00
2022-10-19T08:12:32.002Z,6680.00
2022-10-19T08:13:31.783Z,6920.00
2022-10-19T08:14:31.894Z,7216.00
2022-10-19T08:15:32.006Z,7428.00
2022-10-19T08:16:32.114Z,7524.00
2022-10-19T08:17:32.245Z,7524.00
2022-10-19T08:19:32.494Z,7516.00
2022-10-19T08:20:32.623Z,7540.00
2022-10-19T08:21:32.741Z,7476.00
2022-10-19T08:22:33.205Z,7408.00
2022-10-19T08:23:32.990Z,7400.00
2022-10-19T08:24:33.102Z,7448.00
2022-10-19T08:25:33.211Z,7436.00
2022-10-19T08:26:33.322Z,7356.00
2022-10-19T08:27:33.517Z,7384.00
2022-10-19T08:28:33.553Z,7164.00
2022-10-19T08:29:33.676Z,6960.00
2022-10-19T08:30:33.791Z,7004.00
2022-10-19T08:31:33.915Z,7232.00
2022-10-19T08:32:34.505Z,7400.00
2022-10-19T08:33:34.151Z,7364.00
2022-10-19T08:34:34.282Z,7500.00
2022-10-19T08:35:34.391Z,7536.00
2022-10-19T08:36:34.537Z,7548.00
2022-10-19T08:37:45.294Z,7692.00
2022-10-19T08:38:35.805Z,7964.00
2022-10-19T08:39:34.904Z,8040.00
2022-10-19T08:40:35.017Z,7964.00
2022-10-19T08:41:35.168Z,7912.00
2022-10-19T08:42:35.606Z,8188.00
2022-10-19T08:43:35.424Z,8420.00
2022-10-19T08:44:35.521Z,8948.00
2022-10-19T08:45:35.706Z,8984.00
2022-10-19T08:46:35.740Z,8996.00
2022-10-19T08:47:36.053Z,9168.00
2022-10-19T08:48:36.067Z,9524.00
2022-10-19T08:49:36.208Z,9628.00
2022-10-19T08:50:36.226Z,9408.00
2022-10-19T08:51:36.332Z,9580.00
2022-10-19T08:52:36.460Z,9816.00
2022-10-19T08:53:36.541Z,9988.00
2022-10-19T08:54:36.746Z,10068.00
2022-10-19T08:55:36.816Z,10064.00
2022-10-19T08:56:50.467Z,10068.00
2022-10-19T08:57:38.085Z,10348.00
2022-10-19T08:58:37.181Z,10340.00
2022-10-19T08:59:37.299Z,10712.00
2022-10-19T09:00:37.465Z,10944.00
2022-10-19T09:01:37.845Z,11040.00
2022-10-19T09:02:37.667Z,11272.00
2022-10-19T09:03:54.932Z,11296.00
2022-10-19T09:04:38.901Z,11664.00
2022-10-19T09:05:38.018Z,11872.00
2022-10-19T09:06:38.126Z,12776.00
2022-10-19T09:07:38.242Z,13184.00
2022-10-19T09:08:39.334Z,14300.00
2022-10-19T09:09:38.637Z,16480.00
2022-10-19T09:10:38.610Z,19776.00
2022-10-19T09:11:38.730Z,18368.00
2022-10-19T09:12:38.833Z,15936.00
2022-10-19T09:13:47.190Z,14980.00
2022-10-19T09:14:40.100Z,26208.00
2022-10-19T09:15:39.231Z,19072.00
2022-10-19T09:16:39.353Z,19072.00
2022-10-19T09:17:39.473Z,13636.00
2022-10-19T09:18:39.599Z,14092.00
2022-10-19T09:19:39.704Z,15064.00
2022-10-19T09:20:39.831Z,18272.00
2022-10-19T09:21:44.586Z,25184.00
2022-10-19T09:22:41.090Z,25728.00
2022-10-19T09:23:40.242Z,26848.00
2022-10-19T09:24:40.360Z,15260.00
2022-10-19T09:25:40.483Z,17152.00
2022-10-19T09:26:40.591Z,16000.00
2022-10-19T09:27:40.724Z,18592.00
2022-10-19T09:28:40.830Z,32096.00
2022-10-19T09:29:40.947Z,32928.00
2022-10-19T09:30:41.073Z,32992.00
2022-10-19T09:31:41.181Z,24032.00
2022-10-19T09:32:41.322Z,29792.00
2022-10-19T09:33:41.430Z,30944.00
2022-10-19T09:34:41.539Z,36256.00
2022-10-19T09:35:41.709Z,38912.00
2022-10-19T09:36:56.964Z,35904.00
2022-10-19T09:37:42.901Z,37824.00
2022-10-19T09:38:42.040Z,37504.00
2022-10-19T09:39:50.401Z,36096.00
2022-10-19T09:40:43.250Z,34848.00
2022-10-19T09:41:42.354Z,35744.00
2022-10-19T09:42:42.476Z,39104.00
2022-10-19T09:43:42.618Z,36992.00
2022-10-19T09:44:42.763Z,33056.00
2022-10-19T09:45:42.886Z,18560.00
2022-10-19T09:46:43.006Z,10100.00
2022-10-19T09:47:43.142Z,9328.00
2022-10-19T09:48:43.254Z,8956.00
2022-10-19T09:49:43.361Z,8684.00
2022-10-19T09:50:43.473Z,8556.00
2022-10-19T09:51:43.593Z,8332.00
2022-10-19T09:52:43.729Z,8348.00
2022-10-19T09:53:43.855Z,8512.00
2022-10-19T09:54:43.955Z,8392.00
2022-10-19T09:55:44.199Z,8376.00
2022-10-19T09:56:44.190Z,8568.00
2022-10-19T09:57:44.342Z,8776.00
2022-10-19T09:58:44.416Z,8836.00
2022-10-19T09:59:44.546Z,8832.00
2022-10-19T10:00:44.670Z,8544.00
2022-10-19T10:01:44.896Z,8372.00
2022-10-19T10:03:45.027Z,9840.00
2022-10-19T10:04:45.130Z,10580.00
2022-10-19T10:05:45.252Z,11812.00
2022-10-19T10:06:45.363Z,13080.00
2022-10-19T10:07:45.482Z,14084.00
2022-10-19T10:08:45.652Z,14148.00
2022-10-19T10:09:45.750Z,15024.00
2022-10-19T10:10:45.899Z,16448.00
2022-10-19T10:11:46.087Z,31808.00
2022-10-19T10:12:46.111Z,47200.00
2022-10-19T10:13:46.233Z,48640.00
2022-10-19T10:14:46.332Z,54016.00
2022-10-19T10:15:46.451Z,58208.00
2022-10-19T10:16:46.564Z,54688.00
2022-10-19T10:17:46.699Z,58880.00
2022-10-19T10:18:46.814Z,63232.00
2022-10-19T10:19:46.935Z,61184.00
2022-10-19T10:20:47.058Z,56864.00
2022-10-19T10:21:47.185Z,60288.00
2022-10-19T10:22:47.301Z,68128.00
2022-10-19T10:23:47.433Z,53696.00
2022-10-19T10:24:47.540Z,64864.00
2022-10-19T10:25:47.661Z,59872.00
2022-10-19T10:26:47.774Z,62368.00
2022-10-19T10:27:47.889Z,69600.00
2022-10-19T10:28:48.000Z,63840.00
2022-10-19T10:29:48.136Z,67648.00
2022-10-19T10:30:48.234Z,65696.00
2022-10-19T10:31:48.381Z,62368.00
2022-10-19T10:32:48.579Z,61024.00
2022-10-19T10:33:48.662Z,62048.00
2022-10-19T10:34:52.194Z,58304.00
2022-10-19T10:35:49.837Z,54592.00
2022-10-19T10:36:48.950Z,60512.00
2022-10-19T10:37:49.066Z,55744.00
2022-10-19T10:38:49.238Z,63200.00
2022-10-19T10:39:49.438Z,50656.00
2022-10-19T10:40:49.441Z,53696.00
2022-10-19T10:41:49.563Z,49536.00
2022-10-19T10:42:49.695Z,55456.00
2022-10-19T10:44:49.916Z,64512.00
2022-10-19T10:45:50.036Z,62624.00
2022-10-19T10:46:50.135Z,62528.00
2022-10-19T10:47:50.266Z,64832.00
2022-10-19T10:48:52.740Z,69792.00
2022-10-19T10:49:50.504Z,67232.00
2022-10-19T10:50:50.604Z,64480.00
2022-10-19T10:51:52.952Z,61216.00
2022-10-19T10:52:50.863Z,61248.00
2022-10-19T10:53:51.002Z,64576.00
2022-10-19T10:54:51.116Z,63232.00
2022-10-19T10:55:51.237Z,65536.00
2022-10-19T10:56:51.357Z,63584.00
2022-10-19T10:57:51.485Z,61792.00
2022-10-19T10:58:51.575Z,59264.00
2022-10-19T10:59:51.773Z,61728.00
2022-10-19T11:00:51.865Z,63072.00
2022-10-19T11:01:52.124Z,57728.00
2022-10-19T11:02:52.125Z,55456.00
2022-10-19T11:03:52.249Z,65696.00
2022-10-19T11:04:52.579Z,64256.00
2022-10-19T11:05:52.472Z,54336.00
2022-10-19T11:06:52.596Z,63104.00
2022-10-19T11:07:52.734Z,52256.00
2022-10-19T11:08:52.912Z,60960.00
2022-10-19T11:09:52.984Z,63840.00
2022-10-19T11:10:53.108Z,65312.00
2022-10-19T11:11:53.254Z,65248.00
2022-10-19T11:12:53.366Z,63424.00
2022-10-19T11:13:53.476Z,63200.00
2022-10-19T11:14:53.565Z,62944.00
2022-10-19T11:15:53.711Z,60800.00
2022-10-19T11:16:53.842Z,59904.00
2022-10-19T11:17:53.962Z,58720.00
2022-10-19T11:18:54.084Z,54112.00
2022-10-19T11:19:54.213Z,64032.00
2022-10-19T11:20:54.328Z,60672.00
2022-10-19T11:21:54.446Z,62240.00
2022-10-19T11:22:54.545Z,63808.00
2022-10-19T11:23:54.711Z,61824.00
2022-10-19T11:24:54.800Z,66144.00
2022-10-19T11:25:54.902Z,66720.00
2022-10-19T11:26:55.030Z,76064.00
2022-10-19T11:27:55.302Z,77152.00
2022-10-19T11:28:55.287Z,74176.00
2022-10-19T11:29:55.420Z,72320.00
2022-10-19T11:30:55.532Z,73184.00
2022-10-19T11:31:55.682Z,74368.00
2022-10-19T11:32:55.747Z,69696.00
2022-10-19T11:33:55.872Z,68096.00
2022-10-19T11:34:56.004Z,68704.00
2022-10-19T11:35:56.159Z,76224.00
2022-10-19T11:36:56.315Z,81440.00
2022-10-19T11:38:18.209Z,83456.00
2022-10-19T11:38:57.520Z,79392.00
2022-10-19T11:39:56.647Z,78368.00
2022-10-19T11:41:16.837Z,79328.00
2022-10-19T11:41:57.921Z,84000.00
2022-10-19T11:42:57.027Z,84768.00
2022-10-19T11:43:57.148Z,82624.00
2022-10-19T11:44:57.275Z,75584.00
2022-10-19T11:45:57.393Z,74688.00
2022-10-19T11:46:57.495Z,74240.00
2022-10-19T11:47:57.712Z,67296.00
2022-10-19T11:48:57.732Z,66528.00
2022-10-19T11:49:57.957Z,70208.00
2022-10-19T11:50:58.944Z,69312.00
2022-10-19T11:51:59.121Z,71360.00
2022-10-19T11:52:58.220Z,74944.00
2022-10-19T11:53:58.362Z,75424.00
2022-10-19T11:54:58.494Z,74176.00
2022-10-19T11:55:58.661Z,72704.00
2022-10-19T11:57:03.988Z,67872.00
2022-10-19T11:57:59.865Z,64960.00
2022-10-19T11:58:58.979Z,65184.00
2022-10-19T12:00:08.235Z,72320.00
2022-10-19T12:01:00.235Z,78080.00
2022-10-19T12:01:59.374Z,81824.00
2022-10-19T12:03:02.847Z,84992.00
2022-10-19T12:03:59.626Z,86208.00
2022-10-19T12:04:59.735Z,77312.00
2022-10-19T12:05:59.873Z,72800.00
2022-10-19T12:07:00.001Z,77696.00
2022-10-19T12:08:00.133Z,77120.00
2022-10-19T12:09:00.305Z,77088.00
2022-10-19T12:10:00.394Z,79104.00
2022-10-19T12:11:00.562Z,78624.00
2022-10-19T12:12:00.670Z,76832.00
2022-10-19T12:13:00.787Z,75520.00
2022-10-19T12:14:00.898Z,75104.00
2022-10-19T12:15:00.994Z,78496.00
2022-10-19T12:16:01.151Z,77248.00
2022-10-19T12:17:01.408Z,83968.00
2022-10-19T12:18:01.455Z,82144.00
2022-10-19T12:19:01.534Z,77920.00
2022-10-19T12:20:01.658Z,79488.00
2022-10-19T12:21:01.784Z,78144.00
2022-10-19T12:22:01.907Z,79392.00
2022-10-19T12:23:02.015Z,81056.00
2022-10-19T12:24:02.128Z,82240.00
2022-10-19T12:25:02.255Z,80992.00
2022-10-19T12:26:02.389Z,75808.00
2022-10-19T12:27:02.516Z,78496.00
2022-10-19T12:28:02.773Z,69024.00
2022-10-19T12:29:02.961Z,80320.00
2022-10-19T12:30:02.866Z,78176.00
2022-10-19T12:31:02.996Z,67264.00
2022-10-19T12:32:03.125Z,60800.00
2022-10-19T12:33:03.225Z,67936.00
2022-10-19T12:34:03.360Z,72288.00
2022-10-19T12:35:03.512Z,75968.00
2022-10-19T12:36:03.638Z,81376.00
2022-10-19T12:37:03.779Z,79296.00
2022-10-19T12:38:03.870Z,76768.00
2022-10-19T12:39:03.997Z,77728.00